createdAt,value
2016-12-04T00:00:12.271Z,79.64
2016-12-04T00:00:38.356Z,80.21
2016-12-04T00:01:04.450Z,79.93
2016-12-04T00:01:30.542Z,80.11
2016-12-04T00:01:56.629Z,79.93
2016-12-04T00:02:22.724Z,80.21
2016-12-04T00:02:48.815Z,80.58
2016-12-04T00:03:14.893Z,80.49
2016-12-04T00:03:40.985Z,80.4
2016-12-04T00:04:07.082Z,80.55
2016-12-04T00:04:33.166Z,80.21
2016-12-04T00:04:59.253Z,80.36
2016-12-04T00:05:25.348Z,80.55
2016-12-04T00:05:51.442Z,80.36
2016-12-04T00:06:17.523Z,80.74
2016-12-04T00:06:43.623Z,80.93
2016-12-04T00:07:09.715Z,80.83
2016-12-04T00:07:35.792Z,80.93
2016-12-04T00:08:01.887Z,80.83
2016-12-04T00:08:27.979Z,81.21
2016-12-04T00:08:54.061Z,81.02
2016-12-04T00:09:20.152Z,81.02
2016-12-04T00:09:46.245Z,81.02
2016-12-04T00:10:12.321Z,80.83
2016-12-04T00:10:38.413Z,81.3
2016-12-04T00:11:04.514Z,81.21
2016-12-04T00:11:30.595Z,81.21
2016-12-04T00:11:56.685Z,81.21
2016-12-04T00:12:22.765Z,80.83
2016-12-04T00:12:48.856Z,81.02
2016-12-04T00:13:14.952Z,81.3
2016-12-04T00:13:41.028Z,81.12
2016-12-04T00:14:07.120Z,81.12
2016-12-04T00:14:33.218Z,81.12
2016-12-04T00:14:59.300Z,81.12
2016-12-04T00:15:25.384Z,81.3
2016-12-04T00:15:51.485Z,81.21
2016-12-04T00:16:17.570Z,81.3
2016-12-04T00:16:43.650Z,81.12
2016-12-04T00:17:09.743Z,81.21
2016-12-04T00:17:35.833Z,81.4
2016-12-04T00:18:01.930Z,80.83
2016-12-04T00:18:28.010Z,81.02
2016-12-04T00:18:54.100Z,81.02
2016-12-04T00:19:20.197Z,81.02
2016-12-04T00:19:46.280Z,81.02
2016-12-04T00:20:12.389Z,80.93
2016-12-04T00:20:38.494Z,80.83
2016-12-04T00:21:04.581Z,81.3
2016-12-04T00:21:30.661Z,81.12
2016-12-04T00:21:56.755Z,81.4
2016-12-04T00:22:22.850Z,81.49
2016-12-04T00:22:48.940Z,82.06
2016-12-04T00:23:15.027Z,82.06
2016-12-04T00:23:41.128Z,81.59
2016-12-04T00:24:07.226Z,81.4
2016-12-04T00:24:33.315Z,81.4
2016-12-04T00:24:59.399Z,81.21
2016-12-04T00:25:25.492Z,81.4
2016-12-04T00:25:51.578Z,81.49
2016-12-04T00:26:17.664Z,81.59
2016-12-04T00:26:43.757Z,82.06
2016-12-04T00:27:09.848Z,81.68
2016-12-04T00:27:35.925Z,81.87
2016-12-04T00:28:02.018Z,81.77
2016-12-04T00:28:28.099Z,81.77
2016-12-04T00:28:54.194Z,81.59
2016-12-04T00:29:20.285Z,81.49
2016-12-04T00:29:46.368Z,82.06
2016-12-04T00:30:12.459Z,81.96
2016-12-04T00:30:38.554Z,81.68
2016-12-04T00:31:04.637Z,82.25
2016-12-04T00:31:30.731Z,81.87
2016-12-04T00:31:56.825Z,82.34
2016-12-04T00:32:22.905Z,82.53
2016-12-04T00:32:48.994Z,82.25
2016-12-04T00:33:15.093Z,81.96
2016-12-04T00:33:41.178Z,82.25
2016-12-04T00:34:07.277Z,81.87
2016-12-04T00:34:33.356Z,81.96
2016-12-04T00:34:59.446Z,81.77
2016-12-04T00:35:25.545Z,81.68
2016-12-04T00:35:51.622Z,81.59
2016-12-04T00:36:17.713Z,81.77
2016-12-04T00:36:43.810Z,81.68
2016-12-04T00:37:09.894Z,81.59
2016-12-04T00:37:35.975Z,81.49
2016-12-04T00:38:02.076Z,81.68
2016-12-04T00:38:28.162Z,81.96
2016-12-04T00:38:54.241Z,81.49
2016-12-04T00:39:20.341Z,81.3
2016-12-04T00:39:46.429Z,81.3
2016-12-04T00:40:12.525Z,81.3
2016-12-04T00:40:38.604Z,80.74
2016-12-04T00:41:04.687Z,81.12
2016-12-04T00:41:30.884Z,81.02
2016-12-04T00:41:56.968Z,80.93
2016-12-04T00:42:23.046Z,81.02
2016-12-04T00:42:49.144Z,81.3
2016-12-04T00:43:15.237Z,81.4
2016-12-04T00:43:41.320Z,81.49
2016-12-04T00:44:07.414Z,81.21
2016-12-04T00:44:33.511Z,81.12
2016-12-04T00:44:59.597Z,80.45
2016-12-04T00:45:25.687Z,80.93
2016-12-04T00:45:51.772Z,80.74
2016-12-04T00:46:17.870Z,81.02
2016-12-04T00:46:43.955Z,80.93
2016-12-04T00:47:10.036Z,81.02
2016-12-04T00:47:36.131Z,80.83
2016-12-04T00:48:02.233Z,80.64
2016-12-04T00:48:28.310Z,80.36
2016-12-04T00:48:54.399Z,80.36
2016-12-04T00:49:20.494Z,80.17
2016-12-04T00:49:46.574Z,80.17
2016-12-04T00:50:12.664Z,80.36
2016-12-04T00:50:38.762Z,80.74
2016-12-04T00:51:04.849Z,80.36
2016-12-04T00:51:30.934Z,80.26
2016-12-04T00:51:57.031Z,80.36
2016-12-04T00:52:23.118Z,80.36
2016-12-04T00:52:49.208Z,80.45
2016-12-04T00:53:15.301Z,80.36
2016-12-04T00:53:41.393Z,80.45
2016-12-04T00:54:07.482Z,80.36
2016-12-04T00:54:33.575Z,80.17
2016-12-04T00:54:59.664Z,81.02
2016-12-04T00:55:25.741Z,80.07
2016-12-04T00:55:51.834Z,80.93
2016-12-04T00:56:18.217Z,80.64
2016-12-04T00:56:44.313Z,80.74
2016-12-04T00:57:10.405Z,80.74
2016-12-04T00:57:36.491Z,80.93
2016-12-04T00:58:02.586Z,80.07
2016-12-04T00:58:28.676Z,80.36
2016-12-04T00:58:54.754Z,80.07
2016-12-04T00:59:20.846Z,80.55
2016-12-04T00:59:46.943Z,80.17
2016-12-04T01:00:13.024Z,80.26
2016-12-04T01:00:39.108Z,80.74
2016-12-04T01:01:05.206Z,80.83
2016-12-04T01:01:31.290Z,80.26
2016-12-04T01:01:57.388Z,80.36
2016-12-04T01:02:23.468Z,80.64
2016-12-04T01:02:49.562Z,80.26
2016-12-04T01:03:15.658Z,80.26
2016-12-04T01:03:41.740Z,80.26
2016-12-04T01:04:07.831Z,80.26
2016-12-04T01:04:33.926Z,80.74
2016-12-04T01:05:00.013Z,80.36
2016-12-04T01:05:26.098Z,80.26
2016-12-04T01:05:52.198Z,80.36
2016-12-04T01:06:18.289Z,80.55
2016-12-04T01:06:44.372Z,80.17
2016-12-04T01:07:10.468Z,80.17
2016-12-04T01:07:36.549Z,80.45
2016-12-04T01:08:02.642Z,80.17
2016-12-04T01:08:28.727Z,79.98
2016-12-04T01:08:54.807Z,79.98
2016-12-04T01:09:20.907Z,80.36
2016-12-04T01:09:46.995Z,80.55
2016-12-04T01:10:13.074Z,80.17
2016-12-04T01:10:39.166Z,79.98
2016-12-04T01:11:05.258Z,80.64
2016-12-04T01:11:31.439Z,80.36
2016-12-04T01:11:57.534Z,80.55
2016-12-04T01:12:23.629Z,80.36
2016-12-04T01:12:49.710Z,80.36
2016-12-04T01:13:15.792Z,80.74
2016-12-04T01:13:41.878Z,80.36
2016-12-04T01:14:07.972Z,80.55
2016-12-04T01:14:34.065Z,80.26
2016-12-04T01:15:00.149Z,80.26
2016-12-04T01:15:26.242Z,80.26
2016-12-04T01:15:52.334Z,80.26
2016-12-04T01:16:18.420Z,80.45
2016-12-04T01:16:44.513Z,80.55
2016-12-04T01:17:10.610Z,80.64
2016-12-04T01:17:36.687Z,80.36
2016-12-04T01:18:02.775Z,80.17
2016-12-04T01:18:28.867Z,80.36
2016-12-04T01:18:54.965Z,80.64
2016-12-04T01:19:21.059Z,80.64
2016-12-04T01:19:47.137Z,80.45
2016-12-04T01:20:13.227Z,80.36
2016-12-04T01:20:39.320Z,80.55
2016-12-04T01:21:05.402Z,80.36
2016-12-04T01:21:31.492Z,80.17
2016-12-04T01:21:57.586Z,79.88
2016-12-04T01:22:23.673Z,79.88
2016-12-04T01:22:49.753Z,79.88
2016-12-04T01:23:15.856Z,79.69
2016-12-04T01:23:41.946Z,79.69
2016-12-04T01:24:08.037Z,79.98
2016-12-04T01:24:34.119Z,79.79
2016-12-04T01:25:00.207Z,79.6
2016-12-04T01:25:26.304Z,79.79
2016-12-04T01:25:52.390Z,79.5
2016-12-04T01:26:18.470Z,79.6
2016-12-04T01:26:44.871Z,79.6
2016-12-04T01:27:10.958Z,79.69
2016-12-04T01:27:37.045Z,79.5
2016-12-04T01:28:03.144Z,79.79
2016-12-04T01:28:29.236Z,79.6
2016-12-04T01:28:55.316Z,79.79
2016-12-04T01:29:21.412Z,79.5
2016-12-04T01:29:47.495Z,79.22
2016-12-04T01:30:13.593Z,79.41
2016-12-04T01:30:39.680Z,79.32
2016-12-04T01:31:05.762Z,78.75
2016-12-04T01:31:31.860Z,79.32
2016-12-04T01:31:57.955Z,79.32
2016-12-04T01:32:24.042Z,79.03
2016-12-04T01:32:50.136Z,79.79
2016-12-04T01:33:16.226Z,79.6
2016-12-04T01:33:42.308Z,79.32
2016-12-04T01:34:08.407Z,79.32
2016-12-04T01:34:34.503Z,79.5
2016-12-04T01:35:00.587Z,79.22
2016-12-04T01:35:26.674Z,79.03
2016-12-04T01:35:52.767Z,79.5
2016-12-04T01:36:18.853Z,79.88
2016-12-04T01:36:44.930Z,79.69
2016-12-04T01:37:11.029Z,79.32
2016-12-04T01:37:37.119Z,79.22
2016-12-04T01:38:03.197Z,79.69
2016-12-04T01:38:29.297Z,79.5
2016-12-04T01:38:55.388Z,79.32
2016-12-04T01:39:21.471Z,79.5
2016-12-04T01:39:47.561Z,79.6
2016-12-04T01:40:13.659Z,79.69
2016-12-04T01:40:39.745Z,79.5
2016-12-04T01:41:05.834Z,79.69
2016-12-04T01:41:31.912Z,79.32
2016-12-04T01:41:58.111Z,79.13
2016-12-04T01:42:24.206Z,79.5
2016-12-04T01:42:50.288Z,79.79
2016-12-04T01:43:16.379Z,80.07
2016-12-04T01:43:42.476Z,79.69
2016-12-04T01:44:08.552Z,79.88
2016-12-04T01:44:34.645Z,79.79
2016-12-04T01:45:00.741Z,79.98
2016-12-04T01:45:26.821Z,80.17
2016-12-04T01:45:52.908Z,79.98
2016-12-04T01:46:18.997Z,79.79
2016-12-04T01:46:45.085Z,79.98
2016-12-04T01:47:11.183Z,80.17
2016-12-04T01:47:37.260Z,79.5
2016-12-04T01:48:03.353Z,79.79
2016-12-04T01:48:29.451Z,79.6
2016-12-04T01:48:55.537Z,79.5
2016-12-04T01:49:21.624Z,79.6
2016-12-04T01:49:47.718Z,79.22
2016-12-04T01:50:13.804Z,79.6
2016-12-04T01:50:39.885Z,79.6
2016-12-04T01:51:05.988Z,79.22
2016-12-04T01:51:32.080Z,79.13
2016-12-04T01:51:58.178Z,78.94
2016-12-04T01:52:24.254Z,78.75
2016-12-04T01:52:50.342Z,78.46
2016-12-04T01:53:16.439Z,78.75
2016-12-04T01:53:42.519Z,78.08
2016-12-04T01:56:26.020Z,77.7
2016-12-04T01:56:52.100Z,77.61
2016-12-04T01:57:18.185Z,77.8
2016-12-04T01:57:44.280Z,77.89
2016-12-04T01:58:10.364Z,77.23
2016-12-04T01:58:36.448Z,77.23
2016-12-04T01:59:02.549Z,77.42
2016-12-04T01:59:28.633Z,77.42
2016-12-04T01:59:54.713Z,77.14
2016-12-04T02:00:20.804Z,77.33
2016-12-04T02:00:46.895Z,77.33
2016-12-04T02:01:12.978Z,77.23
2016-12-04T02:01:39.073Z,77.14
2016-12-04T02:02:05.156Z,77.61
2016-12-04T02:02:31.248Z,77.23
2016-12-04T02:02:57.337Z,77.23
2016-12-04T02:03:23.424Z,77.23
2016-12-04T02:03:49.524Z,77.14
2016-12-04T02:04:15.615Z,77.23
2016-12-04T02:04:41.697Z,77.33
2016-12-04T02:05:07.793Z,77.14
2016-12-04T02:05:33.893Z,77.14
2016-12-04T02:05:59.973Z,76.95
2016-12-04T02:06:26.063Z,77.14
2016-12-04T02:06:52.155Z,77.14
2016-12-04T02:07:18.241Z,77.14
2016-12-04T02:07:44.335Z,77.14
2016-12-04T02:08:10.416Z,77.14
2016-12-04T02:08:36.510Z,77.08
2016-12-04T02:09:02.603Z,77.27
2016-12-04T02:09:28.683Z,77.18
2016-12-04T02:09:54.773Z,77.18
2016-12-04T02:10:20.872Z,76.86
2016-12-04T02:10:46.958Z,76.76
2016-12-04T02:11:13.046Z,76.57
2016-12-04T02:11:39.142Z,76.76
2016-12-04T02:12:05.232Z,76.76
2016-12-04T02:12:31.312Z,77.23
2016-12-04T02:12:57.405Z,77.33
2016-12-04T02:13:23.494Z,77.14
2016-12-04T02:13:49.587Z,77.33
2016-12-04T02:14:15.664Z,77.42
2016-12-04T02:14:41.753Z,77.51
2016-12-04T02:15:07.847Z,77.7
2016-12-04T02:15:33.957Z,77.89
2016-12-04T02:16:00.038Z,78.27
2016-12-04T02:16:26.172Z,77.99
2016-12-04T02:16:52.259Z,78.37
2016-12-04T02:17:18.344Z,78.75
2016-12-04T02:17:44.442Z,78.56
2016-12-04T02:18:10.529Z,78.94
2016-12-04T02:18:36.610Z,78.85
2016-12-04T02:19:02.705Z,79.32
2016-12-04T02:19:28.802Z,78.75
2016-12-04T02:19:54.877Z,79.13
2016-12-04T02:20:20.971Z,79.13
2016-12-04T02:20:47.067Z,79.69
2016-12-04T02:21:13.146Z,79.5
2016-12-04T02:21:39.228Z,79.6
2016-12-04T02:22:05.325Z,79.13
2016-12-04T02:22:31.406Z,79.5
2016-12-04T02:22:57.491Z,79.5
2016-12-04T02:23:23.584Z,79.6
2016-12-04T02:23:49.695Z,79.6
2016-12-04T02:24:15.787Z,79.5
2016-12-04T02:24:41.868Z,80.07
2016-12-04T02:25:07.959Z,79.98
2016-12-04T02:25:34.057Z,79.79
2016-12-04T02:26:00.143Z,80.26
2016-12-04T02:26:26.230Z,80.26
2016-12-04T02:26:52.323Z,80.13
2016-12-04T02:27:18.410Z,80.32
2016-12-04T02:27:44.491Z,80.41
2016-12-04T02:28:10.591Z,80.6
2016-12-04T02:28:36.678Z,80.69
2016-12-04T02:29:02.763Z,80.22
2016-12-04T02:29:28.859Z,80.22
2016-12-04T02:29:54.945Z,79.94
2016-12-04T02:30:21.043Z,80.32
2016-12-04T02:30:47.132Z,80.32
2016-12-04T02:31:13.217Z,80.41
2016-12-04T02:31:39.313Z,80.88
2016-12-04T02:32:05.404Z,80.88
2016-12-04T02:32:31.485Z,80.6
2016-12-04T02:32:57.576Z,80.88
2016-12-04T02:33:23.673Z,80.79
2016-12-04T02:33:49.756Z,80.6
2016-12-04T02:34:15.847Z,81.26
2016-12-04T02:34:41.967Z,80.98
2016-12-04T02:35:08.051Z,81.07
2016-12-04T02:35:34.144Z,80.79
2016-12-04T02:36:00.223Z,80.88
2016-12-04T02:36:26.318Z,80.79
2016-12-04T02:36:52.416Z,80.88
2016-12-04T02:37:18.499Z,80.88
2016-12-04T02:37:44.589Z,80.51
2016-12-04T02:38:10.686Z,80.41
2016-12-04T02:38:36.763Z,80.98
2016-12-04T02:39:02.852Z,80.51
2016-12-04T02:39:28.945Z,80.79
2016-12-04T02:39:55.032Z,80.98
2016-12-04T02:40:21.114Z,80.98
2016-12-04T02:40:47.205Z,81.07
2016-12-04T02:41:13.300Z,81.07
2016-12-04T02:41:39.399Z,81.26
2016-12-04T02:42:05.487Z,81.17
2016-12-04T02:42:31.571Z,81.17
2016-12-04T02:42:57.665Z,81.17
2016-12-04T02:43:23.784Z,81.17
2016-12-04T02:43:49.861Z,81.17
2016-12-04T02:44:15.954Z,80.6
2016-12-04T02:44:42.043Z,80.98
2016-12-04T02:45:08.122Z,81.07
2016-12-04T02:45:34.220Z,80.98
2016-12-04T02:46:00.310Z,80.69
2016-12-04T02:46:26.400Z,80.79
2016-12-04T02:46:52.486Z,80.88
2016-12-04T02:47:18.567Z,80.6
2016-12-04T02:47:44.664Z,80.41
2016-12-04T02:48:10.753Z,80.69
2016-12-04T02:48:36.849Z,80.69
2016-12-04T02:49:02.946Z,80.98
2016-12-04T02:49:29.026Z,80.6
2016-12-04T02:49:55.114Z,80.36
2016-12-04T02:50:21.205Z,79.98
2016-12-04T02:50:47.303Z,80.69
2016-12-04T02:51:13.384Z,80.51
2016-12-04T02:51:39.472Z,80.51
2016-12-04T02:52:05.560Z,80.83
2016-12-04T02:52:31.661Z,80.69
2016-12-04T02:52:57.741Z,80.79
2016-12-04T02:53:23.823Z,80.13
2016-12-04T02:53:49.917Z,80.22
2016-12-04T02:54:16.017Z,79.98
2016-12-04T02:54:42.096Z,79.98
2016-12-04T02:55:08.185Z,80.26
2016-12-04T02:55:34.285Z,80.88
2016-12-04T02:56:00.368Z,80.79
2016-12-04T02:56:26.455Z,80.74
2016-12-04T02:56:52.542Z,80.83
2016-12-04T02:57:18.619Z,80.98
2016-12-04T02:57:44.718Z,80.22
2016-12-04T02:58:10.795Z,79.94
2016-12-04T02:58:36.880Z,80.36
2016-12-04T02:59:02.976Z,80.36
2016-12-04T02:59:29.055Z,80.55
2016-12-04T02:59:55.140Z,80.36
2016-12-04T03:00:21.232Z,80.64
2016-12-04T03:00:47.314Z,80.36
2016-12-04T03:01:13.399Z,80.36
2016-12-04T03:01:39.503Z,80.17
2016-12-04T03:02:05.593Z,80.26
2016-12-04T03:02:31.677Z,80.36
2016-12-04T03:02:57.767Z,80.45
2016-12-04T03:03:23.861Z,80.55
2016-12-04T03:03:49.947Z,80.26
2016-12-04T03:04:16.040Z,80.36
2016-12-04T03:04:42.136Z,80.55
2016-12-04T03:05:08.218Z,80.64
2016-12-04T03:05:34.307Z,80.64
2016-12-04T03:06:00.403Z,80.55
2016-12-04T03:06:26.482Z,80.36
2016-12-04T03:06:52.568Z,80.36
2016-12-04T03:07:18.667Z,80.36
2016-12-04T03:07:44.754Z,80.55
2016-12-04T03:08:10.830Z,80.36
2016-12-04T03:08:36.926Z,80.17
2016-12-04T03:09:03.030Z,80.26
2016-12-04T03:09:29.125Z,80.36
2016-12-04T03:09:55.217Z,80.36
2016-12-04T03:10:21.306Z,80.17
2016-12-04T03:10:47.391Z,80.26
2016-12-04T03:11:13.481Z,80.36
2016-12-04T03:11:39.580Z,80.74
2016-12-04T03:12:05.663Z,80.64
2016-12-04T03:12:31.757Z,80.74
2016-12-04T03:12:57.851Z,80.36
2016-12-04T03:13:23.937Z,80.26
2016-12-04T03:13:50.031Z,80.45
2016-12-04T03:14:16.120Z,80.26
2016-12-04T03:14:42.219Z,80.55
2016-12-04T03:15:08.312Z,80.36
2016-12-04T03:15:34.387Z,79.88
2016-12-04T03:16:00.478Z,80.45
2016-12-04T03:16:26.575Z,80.45
2016-12-04T03:16:52.683Z,80.36
2016-12-04T03:17:18.772Z,79.88
2016-12-04T03:17:44.869Z,79.98
2016-12-04T03:18:10.949Z,79.79
2016-12-04T03:18:37.035Z,79.69
2016-12-04T03:19:03.172Z,80.36
2016-12-04T03:19:29.263Z,80.55
2016-12-04T03:19:55.355Z,80.45
2016-12-04T03:20:21.442Z,80.36
2016-12-04T03:20:47.530Z,80.45
2016-12-04T03:21:13.624Z,79.98
2016-12-04T03:21:39.708Z,80.45
2016-12-04T03:22:05.790Z,80.55
2016-12-04T03:22:31.886Z,80.64
2016-12-04T03:22:57.980Z,80.93
2016-12-04T03:23:24.057Z,81.02
2016-12-04T03:23:50.153Z,80.83
2016-12-04T03:24:16.242Z,81.07
2016-12-04T03:24:42.328Z,81.36
2016-12-04T03:25:08.427Z,81.3
2016-12-04T03:25:34.526Z,81.49
2016-12-04T03:26:00.607Z,81.26
2016-12-04T03:26:26.696Z,81.3
2016-12-04T03:26:52.790Z,81.12
2016-12-04T03:27:18.875Z,81.26
2016-12-04T03:27:44.965Z,81.26
2016-12-04T03:28:11.060Z,81.49
2016-12-04T03:28:37.141Z,81.3
2016-12-04T03:29:03.224Z,81.21
2016-12-04T03:29:29.322Z,81.07
2016-12-04T03:29:55.440Z,81.4
2016-12-04T03:30:21.521Z,81.21
2016-12-04T03:30:47.614Z,80.98
2016-12-04T03:31:13.698Z,81.26
2016-12-04T03:31:39.795Z,81.45
2016-12-04T03:32:05.877Z,82.12
2016-12-04T03:32:31.961Z,81.93
2016-12-04T03:32:58.057Z,81.83
2016-12-04T03:33:24.149Z,81.83
2016-12-04T03:33:50.226Z,81.74
2016-12-04T03:34:16.321Z,81.64
2016-12-04T03:34:42.415Z,81.93
2016-12-04T03:35:08.498Z,81.55
2016-12-04T03:35:34.590Z,81.64
2016-12-04T03:36:00.679Z,81.64
2016-12-04T03:36:26.768Z,81.36
2016-12-04T03:36:52.859Z,81.36
2016-12-04T03:37:18.940Z,81.36
2016-12-04T03:37:45.135Z,81.26
2016-12-04T03:38:11.225Z,81.55
2016-12-04T03:38:37.308Z,81.55
2016-12-04T03:39:03.400Z,81.26
2016-12-04T03:39:29.501Z,81.45
2016-12-04T03:39:55.577Z,81.68
2016-12-04T03:40:21.671Z,81.55
2016-12-04T03:40:47.768Z,81.49
2016-12-04T03:41:13.851Z,82.02
2016-12-04T03:41:39.936Z,81.36
2016-12-04T03:42:06.020Z,81.59
2016-12-04T03:42:32.112Z,81.45
2016-12-04T03:42:58.206Z,81.4
2016-12-04T03:43:24.289Z,81.83
2016-12-04T03:43:50.381Z,81.55
2016-12-04T03:44:16.469Z,81.83
2016-12-04T03:44:42.548Z,81.93
2016-12-04T03:45:08.637Z,82.02
2016-12-04T03:45:34.728Z,81.74
2016-12-04T03:46:00.810Z,81.83
2016-12-04T03:46:26.891Z,82.06
2016-12-04T03:46:52.996Z,81.64
2016-12-04T03:47:19.083Z,81.83
2016-12-04T03:47:45.170Z,81.93
2016-12-04T03:48:11.268Z,81.87
2016-12-04T03:48:37.354Z,81.4
2016-12-04T03:49:03.436Z,81.68
2016-12-04T03:49:29.528Z,81.3
2016-12-04T03:49:55.622Z,81.3
2016-12-04T03:50:21.702Z,81.3
2016-12-04T03:50:47.792Z,81.4
2016-12-04T03:51:13.888Z,81.02
2016-12-04T03:51:39.970Z,80.93
2016-12-04T03:52:06.061Z,80.74
2016-12-04T03:52:32.153Z,80.36
2016-12-04T03:52:58.239Z,80.26
2016-12-04T03:53:24.340Z,80.17
2016-12-04T03:53:50.420Z,80.36
2016-12-04T03:54:16.512Z,80.64
2016-12-04T03:54:42.608Z,80.55
2016-12-04T03:55:08.687Z,80.36
2016-12-04T03:55:34.775Z,80.17
2016-12-04T03:56:00.865Z,79.98
2016-12-04T03:56:26.952Z,79.98
2016-12-04T03:56:53.034Z,79.98
2016-12-04T03:57:19.134Z,79.98
2016-12-04T03:57:45.242Z,80.17
2016-12-04T03:58:11.326Z,80.26
2016-12-04T03:58:37.420Z,81.02
2016-12-04T03:59:03.503Z,80.55
2016-12-04T03:59:29.601Z,80.74
2016-12-04T03:59:55.686Z,80.36
2016-12-04T04:00:21.769Z,80.64
2016-12-04T04:00:47.872Z,80.45
2016-12-04T04:01:13.958Z,80.26
2016-12-04T04:01:40.041Z,79.98
2016-12-04T04:02:06.138Z,80.36
2016-12-04T04:02:32.225Z,80.36
2016-12-04T04:02:58.311Z,80.26
2016-12-04T04:03:24.404Z,80.26
2016-12-04T04:03:50.501Z,80.07
2016-12-04T04:04:16.586Z,80.74
2016-12-04T04:04:42.675Z,80.55
2016-12-04T04:05:08.760Z,80.36
2016-12-04T04:05:34.862Z,80.64
2016-12-04T04:06:00.956Z,80.36
2016-12-04T04:06:27.041Z,80.22
2016-12-04T04:06:53.133Z,80.36
2016-12-04T04:07:19.228Z,80.74
2016-12-04T04:07:45.309Z,80.51
2016-12-04T04:08:11.500Z,80.32
2016-12-04T04:08:37.595Z,79.98
2016-12-04T04:09:03.680Z,80.45
2016-12-04T04:09:29.771Z,80.17
2016-12-04T04:09:55.856Z,80.26
2016-12-04T04:10:21.951Z,80.26
2016-12-04T04:10:48.043Z,80.51
2016-12-04T04:11:14.130Z,80.83
2016-12-04T04:11:40.217Z,80.64
2016-12-04T04:12:06.314Z,81.02
2016-12-04T04:12:32.393Z,80.04
2016-12-04T04:12:58.480Z,80.51
2016-12-04T04:13:24.573Z,80.74
2016-12-04T04:13:50.659Z,80.36
2016-12-04T04:14:16.739Z,80.26
2016-12-04T04:14:42.837Z,80.22
2016-12-04T04:15:08.926Z,80.51
2016-12-04T04:15:35.020Z,80.22
2016-12-04T04:16:01.100Z,80.64
2016-12-04T04:16:27.189Z,80.36
2016-12-04T04:16:53.282Z,80.13
2016-12-04T04:17:19.365Z,80.17
2016-12-04T04:17:45.443Z,80.93
2016-12-04T04:18:11.540Z,80.32
2016-12-04T04:18:37.628Z,80.36
2016-12-04T04:19:03.709Z,80.45
2016-12-04T04:19:29.833Z,80.32
2016-12-04T04:19:55.921Z,80.36
2016-12-04T04:20:22.004Z,80.36
2016-12-04T04:20:48.095Z,80.45
2016-12-04T04:21:14.176Z,80.26
2016-12-04T04:21:40.270Z,80.26
2016-12-04T04:22:06.359Z,80.74
2016-12-04T04:22:32.441Z,80.17
2016-12-04T04:22:58.536Z,80.07
2016-12-04T04:23:24.624Z,80.36
2016-12-04T04:23:50.707Z,80.36
2016-12-04T04:24:16.799Z,80.26
2016-12-04T04:24:42.898Z,80.07
2016-12-04T04:25:08.976Z,80.26
2016-12-04T04:25:35.089Z,79.69
2016-12-04T04:26:01.185Z,79.69
2016-12-04T04:26:27.264Z,79.69
2016-12-04T04:26:53.357Z,79.5
2016-12-04T04:27:19.442Z,79.69
2016-12-04T04:27:45.532Z,79.6
2016-12-04T04:28:11.628Z,79.5
2016-12-04T04:28:37.705Z,79.79
2016-12-04T04:29:03.798Z,80.17
2016-12-04T04:29:29.888Z,79.5
2016-12-04T04:29:55.972Z,79.5
2016-12-04T04:30:22.061Z,79.41
2016-12-04T04:30:48.154Z,79.5
2016-12-04T04:31:14.238Z,79.32
2016-12-04T04:31:40.321Z,79.03
2016-12-04T04:32:06.419Z,79.32
2016-12-04T04:32:32.508Z,79.41
2016-12-04T04:32:58.592Z,79.5
2016-12-04T04:33:24.690Z,79.32
2016-12-04T04:33:50.782Z,79.6
2016-12-04T04:34:16.864Z,79.69
2016-12-04T04:34:42.958Z,79.13
2016-12-04T04:35:09.054Z,79.13
2016-12-04T04:35:35.131Z,79.22
2016-12-04T04:36:01.221Z,78.85
2016-12-04T04:36:27.318Z,78.94
2016-12-04T04:36:53.399Z,79.03
2016-12-04T04:37:19.484Z,78.65
2016-12-04T04:37:45.569Z,77.89
2016-12-04T04:38:11.764Z,78.37
2016-12-04T04:38:37.862Z,79.03
2016-12-04T04:39:03.944Z,78.65
2016-12-04T04:39:30.031Z,78.75
2016-12-04T04:39:56.129Z,78.75
2016-12-04T04:40:22.208Z,77.89
2016-12-04T04:40:48.296Z,78.27
2016-12-04T04:41:14.390Z,78.18
2016-12-04T04:41:40.475Z,78.37
2016-12-04T04:42:06.554Z,78.75
2016-12-04T04:42:32.658Z,78.94
2016-12-04T04:42:58.740Z,78.85
2016-12-04T04:43:24.833Z,78.37
2016-12-04T04:43:50.914Z,78.65
2016-12-04T04:44:17.003Z,78.56
2016-12-04T04:44:43.096Z,78.08
2016-12-04T04:45:09.178Z,78.37
2016-12-04T04:45:35.261Z,78.46
2016-12-04T04:46:01.360Z,78.37
2016-12-04T04:46:27.447Z,78.27
2016-12-04T04:46:53.530Z,78.18
2016-12-04T04:47:19.630Z,77.7
2016-12-04T04:47:45.720Z,77.89
2016-12-04T04:48:11.800Z,78.08
2016-12-04T04:48:37.897Z,77.51
2016-12-04T04:49:03.978Z,77.61
2016-12-04T04:49:30.075Z,77.99
2016-12-04T04:49:56.163Z,77.33
2016-12-04T04:50:22.245Z,77.14
2016-12-04T04:50:48.341Z,77.23
2016-12-04T04:51:14.430Z,77.14
2016-12-04T04:51:40.511Z,77.14
2016-12-04T04:52:06.600Z,77.33
2016-12-04T04:52:32.698Z,77.89
2016-12-04T04:52:58.777Z,77.61
2016-12-04T04:53:24.873Z,77.61
2016-12-04T04:53:50.968Z,77.61
2016-12-04T04:54:17.049Z,77.23
2016-12-04T04:54:43.137Z,77.14
2016-12-04T04:55:09.220Z,77.42
2016-12-04T04:55:35.310Z,77.61
2016-12-04T04:56:01.411Z,77.61
2016-12-04T04:56:27.515Z,77.89
2016-12-04T04:56:53.607Z,77.61
2016-12-04T04:57:19.702Z,77.14
2016-12-04T04:57:45.784Z,77.23
2016-12-04T04:58:11.874Z,77.33
2016-12-04T04:58:37.974Z,77.42
2016-12-04T04:59:04.063Z,76.95
2016-12-04T04:59:30.144Z,77.33
2016-12-04T04:59:56.231Z,77.23
2016-12-04T05:00:22.322Z,77.51
2016-12-04T05:00:48.417Z,77.14
2016-12-04T05:01:14.498Z,76.86
2016-12-04T05:01:40.583Z,77.33
2016-12-04T05:02:06.681Z,77.33
2016-12-04T05:02:32.767Z,77.42
2016-12-04T05:02:58.848Z,77.14
2016-12-04T05:03:24.948Z,77.42
2016-12-04T05:03:51.032Z,77.14
2016-12-04T05:04:17.116Z,77.33
2016-12-04T05:04:43.212Z,77.04
2016-12-04T05:05:09.303Z,77.42
2016-12-04T05:05:35.391Z,77.23
2016-12-04T05:06:01.478Z,77.33
2016-12-04T05:06:27.558Z,77.14
2016-12-04T05:06:53.659Z,77.04
2016-12-04T05:07:19.745Z,77.14
2016-12-04T05:07:45.827Z,77.14
2016-12-04T05:08:11.920Z,77.14
2016-12-04T05:08:38.135Z,77.14
2016-12-04T05:09:04.223Z,77.14
2016-12-04T05:09:30.314Z,77.14
2016-12-04T05:09:56.414Z,77.33
2016-12-04T05:10:22.496Z,77.23
2016-12-04T05:10:48.585Z,77.33
2016-12-04T05:11:14.667Z,77.14
2016-12-04T05:11:40.762Z,77.42
2016-12-04T05:12:06.850Z,77.61
2016-12-04T05:12:32.932Z,76.95
2016-12-04T05:12:59.029Z,77.23
2016-12-04T05:13:25.125Z,76.86
2016-12-04T05:13:51.210Z,77.33
2016-12-04T05:14:17.330Z,77.14
2016-12-04T05:14:43.430Z,77.23
2016-12-04T05:15:09.511Z,76.86
2016-12-04T05:15:35.591Z,76.86
2016-12-04T05:16:01.688Z,76.86
2016-12-04T05:16:27.771Z,76.48
2016-12-04T05:16:53.850Z,76.1
2016-12-04T05:17:19.945Z,76.29
2016-12-04T05:17:46.035Z,76.29
2016-12-04T05:18:12.115Z,76.48
2016-12-04T05:18:38.210Z,76.29
2016-12-04T05:19:04.299Z,76.95
2016-12-04T05:19:30.383Z,76.95
2016-12-04T05:19:56.476Z,76.48
2016-12-04T05:20:22.573Z,76.86
2016-12-04T05:20:48.652Z,76.95
2016-12-04T05:21:14.747Z,76.86
2016-12-04T05:21:40.867Z,76.76
2016-12-04T05:22:06.950Z,77.14
2016-12-04T05:22:33.036Z,77.33
2016-12-04T05:22:59.122Z,77.14
2016-12-04T05:23:25.212Z,77.23
2016-12-04T05:23:51.304Z,77.33
2016-12-04T05:24:17.382Z,77.14
2016-12-04T05:24:43.473Z,77.33
2016-12-04T05:25:09.570Z,77.33
2016-12-04T05:25:35.650Z,77.14
2016-12-04T05:26:01.738Z,76.76
2016-12-04T05:26:27.826Z,76.76
2016-12-04T05:26:53.910Z,76.57
2016-12-04T05:27:19.986Z,76.38
2016-12-04T05:27:46.083Z,76.57
2016-12-04T05:28:12.168Z,76.19
2016-12-04T05:28:38.265Z,75.91
2016-12-04T05:29:04.350Z,75.91
2016-12-04T05:29:30.438Z,76
2016-12-04T05:29:56.535Z,75.91
2016-12-04T05:30:22.620Z,75.62
2016-12-04T05:30:48.725Z,76.38
2016-12-04T05:31:14.818Z,76.29
2016-12-04T05:31:40.907Z,76.48
2016-12-04T05:32:06.987Z,76.29
2016-12-04T05:32:33.083Z,76.1
2016-12-04T05:32:59.168Z,76.29
2016-12-04T05:33:25.256Z,76.95
2016-12-04T05:33:51.342Z,76.76
2016-12-04T05:34:17.422Z,77.04
2016-12-04T05:34:43.522Z,77.33
2016-12-04T05:35:09.609Z,77.14
2016-12-04T05:35:35.689Z,77.14
2016-12-04T05:36:01.782Z,77.14
2016-12-04T05:36:27.872Z,77.14
2016-12-04T05:36:53.958Z,77.14
2016-12-04T05:37:20.051Z,77.14
2016-12-04T05:37:46.143Z,77.04
2016-12-04T05:38:12.221Z,76.76
2016-12-04T05:38:38.310Z,76.86
2016-12-04T05:39:04.393Z,76.76
2016-12-04T05:39:30.491Z,76.76